Time;durP1;ratioP1;P1;durP2;ratioP2;P2;SDS_P1;SDS_P2;PMS_P1;PMS_P2;Temp;Humidity;BMP_temperature;BMP_pressure;BME280_temperature;BME280_humidity;BME280_pressure;Samples;Min_cycle;Max_cycle;Signal;HPM_P1;HPM_P2
2024/01/31 00:02:10;;;;;;;10.02;2.15;;;26.50;99.90;;;;;;5118024;28;20205;-79
2024/01/31 00:04:43;;;;;;;6.53;1.92;;;26.60;99.90;;;;;;5120383;27;20198;-79
2024/01/31 00:07:14;;;;;;;8.25;1.98;;;26.70;99.90;;;;;;5123961;28;20190;-79
2024/01/31 00:09:45;;;;;;;6.65;2.20;;;26.80;99.90;;;;;;5120266;28;20285;-79
2024/01/31 00:12:16;;;;;;;10.27;2.45;;;26.80;99.90;;;;;;5120684;27;20198;-78
2024/01/31 00:14:47;;;;;;;9.10;2.10;;;27.00;99.90;;;;;;5137353;27;20190;-78
2024/01/31 00:17:18;;;;;;;10.10;2.45;;;27.00;99.90;;;;;;5141568;27;20178;-79
2024/01/31 00:19:50;;;;;;;9.02;2.47;;;27.10;99.90;;;;;;5136126;27;20195;-78
2024/01/31 00:22:21;;;;;;;8.13;2.17;;;27.20;99.90;;;;;;5133482;27;20596;-78
2024/01/31 00:24:52;;;;;;;7.97;2.33;;;27.30;99.90;;;;;;5124336;27;20194;-78
2024/01/31 00:27:23;;;;;;;5.93;1.95;;;27.40;99.90;;;;;;5120862;28;20197;-80
2024/01/31 00:29:53;;;;;;;9.60;2.30;;;27.50;99.90;;;;;;5125632;27;20194;-78
2024/01/31 00:32:24;;;;;;;12.48;2.47;;;27.60;99.90;;;;;;5135599;27;20185;-79
2024/01/31 00:34:57;;;;;;;7.47;2.13;;;27.60;99.90;;;;;;5136740;27;20194;-79
2024/01/31 00:37:28;;;;;;;7.28;2.20;;;27.50;99.90;;;;;;5118711;28;20205;-79
2024/01/31 00:40:00;;;;;;;6.45;2.03;;;27.50;99.90;;;;;;5146631;27;20185;-79
2024/01/31 00:42:31;;;;;;;7.25;2.20;;;27.50;99.90;;;;;;5116877;28;20194;-79
2024/01/31 00:45:01;;;;;;;6.28;1.92;;;27.50;99.90;;;;;;5117216;28;20201;-79
2024/01/31 00:47:32;;;;;;;9.38;2.00;;;27.60;99.90;;;;;;5116916;28;20236;-79
2024/01/31 00:50:06;;;;;;;7.72;2.22;;;27.70;99.90;;;;;;5117700;28;20209;-79
2024/01/31 00:52:37;;;;;;;6.07;1.92;;;27.70;99.90;;;;;;5116585;28;20247;-79
2024/01/31 00:55:08;;;;;;;8.35;2.30;;;27.70;99.90;;;;;;5117623;28;20253;-79
2024/01/31 00:57:39;;;;;;;6.47;2.25;;;27.70;99.90;;;;;;5118791;27;20200;-79
2024/01/31 01:00:11;;;;;;;8.95;2.20;;;27.70;99.90;;;;;;5137320;27;20217;-78
2024/01/31 01:02:42;;;;;;;5.32;2.03;;;27.80;99.90;;;;;;5137801;27;20570;-80
2024/01/31 01:05:15;;;;;;;6.25;1.83;;;27.80;99.90;;;;;;5131799;27;20273;-79
2024/01/31 01:07:46;;;;;;;8.35;2.28;;;27.80;99.90;;;;;;5134589;27;20213;-80
2024/01/31 01:10:17;;;;;;;8.23;2.17;;;27.90;99.90;;;;;;5126010;27;20570;-81
2024/01/31 01:12:48;;;;;;;6.30;1.58;;;28.10;99.90;;;;;;5130768;27;20241;-80
2024/01/31 01:15:21;;;;;;;9.23;2.13;;;28.30;99.90;;;;;;5130895;27;20190;-80
2024/01/31 01:17:52;;;;;;;5.97;1.80;;;28.40;99.90;;;;;;5125245;27;20210;-79
2024/01/31 01:20:25;;;;;;;6.65;2.10;;;28.50;99.90;;;;;;5111493;28;20222;-80
2024/01/31 01:22:56;;;;;;;6.60;1.83;;;28.30;99.90;;;;;;5114159;27;20601;-80
2024/01/31 01:25:27;;;;;;;7.22;2.15;;;28.30;99.90;;;;;;5128921;27;20251;-80
2024/01/31 01:27:58;;;;;;;7.85;1.88;;;28.20;99.90;;;;;;5132858;27;20198;-80
2024/01/31 01:30:29;;;;;;;6.05;1.60;;;28.10;99.90;;;;;;5134791;27;20253;-78
2024/01/31 01:33:00;;;;;;;6.40;1.65;;;28.10;99.90;;;;;;5115668;27;20205;-79
2024/01/31 01:35:32;;;;;;;6.50;2.03;;;28.20;99.90;;;;;;5114090;27;20202;-80
2024/01/31 01:38:03;;;;;;;7.18;1.83;;;28.10;99.90;;;;;;5125077;27;20213;-79
2024/01/31 01:40:34;;;;;;;6.78;2.00;;;28.10;99.90;;;;;;5124481;27;20234;-78
2024/01/31 01:43:05;;;;;;;6.45;1.88;;;28.10;99.90;;;;;;5145374;27;20209;-79
2024/01/31 01:45:35;;;;;;;7.50;2.08;;;28.10;99.90;;;;;;5110803;28;20202;-79
2024/01/31 01:48:10;;;;;;;9.38;2.15;;;28.00;99.90;;;;;;5111825;27;20256;-79
2024/01/31 01:50:44;;;;;;;5.93;1.83;;;27.90;99.90;;;;;;5130981;28;20703;-79
2024/01/31 01:53:15;;;;;;;10.82;2.40;;;27.80;99.90;;;;;;5131424;28;20655;-77
2024/01/31 01:55:47;;;;;;;6.68;1.90;;;27.80;99.90;;;;;;5130702;28;20197;-79
2024/01/31 01:58:19;;;;;;;8.95;2.20;;;27.90;99.90;;;;;;5114536;28;20193;-79
2024/01/31 02:00:51;;;;;;;8.43;2.05;;;27.80;99.90;;;;;;5111681;28;20244;-79
2024/01/31 02:03:22;;;;;;;5.22;2.05;;;27.70;99.90;;;;;;5112579;28;20692;-80
2024/01/31 02:05:55;;;;;;;7.93;2.38;;;27.60;99.90;;;;;;5114278;28;20210;-81
2024/01/31 02:08:26;;;;;;;9.32;2.40;;;27.50;99.90;;;;;;5129453;28;20693;-80
2024/01/31 02:10:56;;;;;;;11.30;2.88;;;27.30;99.90;;;;;;5131773;28;20282;-81
2024/01/31 02:13:27;;;;;;;6.68;2.10;;;27.20;99.90;;;;;;5130251;28;20193;-82
2024/01/31 02:15:58;;;;;;;9.23;2.10;;;26.90;99.90;;;;;;5126198;28;20199;-81
2024/01/31 02:18:31;;;;;;;8.85;2.30;;;26.80;99.90;;;;;;5131660;28;20212;-80
2024/01/31 02:21:05;;;;;;;8.50;2.08;;;26.80;99.90;;;;;;5118335;28;20257;-81
2024/01/31 02:23:37;;;;;;;10.27;2.40;;;26.70;99.90;;;;;;5115827;28;20202;-82
2024/01/31 02:26:08;;;;;;;10.30;2.90;;;26.70;99.90;;;;;;5116606;28;20277;-81
2024/01/31 02:28:39;;;;;;;7.00;2.42;;;26.70;99.90;;;;;;5131010;28;20193;-82
2024/01/31 02:31:10;;;;;;;10.98;2.95;;;26.60;99.90;;;;;;5113972;28;20205;-81
2024/01/31 02:33:40;;;;;;;11.90;2.70;;;26.60;99.90;;;;;;5115123;28;20674;-81
2024/01/31 02:36:11;;;;;;;11.68;2.60;;;26.70;99.90;;;;;;5111299;28;20217;-81
2024/01/31 02:38:44;;;;;;;8.35;2.30;;;26.70;99.90;;;;;;5127263;28;20198;-81
2024/01/31 02:41:15;;;;;;;12.02;2.47;;;26.70;99.90;;;;;;5123570;28;20214;-85
2024/01/31 02:43:46;;;;;;;8.48;2.35;;;26.80;99.90;;;;;;5121465;28;20389;-87
2024/01/31 02:46:17;;;;;;;8.02;2.35;;;26.70;99.90;;;;;;5116382;28;20194;-85
2024/01/31 02:48:48;;;;;;;9.00;2.17;;;26.70;99.90;;;;;;5113238;28;20285;-89
2024/01/31 02:51:20;;;;;;;5.40;2.00;;;26.70;99.90;;;;;;5115965;27;20226;-87
2024/01/31 02:53:53;;;;;;;7.82;2.35;;;26.80;99.90;;;;;;5118681;27;20194;-85
2024/01/31 02:56:24;;;;;;;7.93;2.30;;;26.70;99.90;;;;;;5125094;27;20596;-85
2024/01/31 02:58:55;;;;;;;10.18;2.30;;;26.70;99.90;;;;;;5115522;28;20267;-83
2024/01/31 03:01:26;;;;;;;5.68;1.92;;;26.70;99.90;;;;;;5116580;27;20253;-85
2024/01/31 03:03:56;;;;;;;5.60;2.05;;;26.70;99.90;;;;;;5135107;27;20197;-85
2024/01/31 03:06:27;;;;;;;7.53;2.20;;;26.70;99.90;;;;;;5125897;27;20559;-83
2024/01/31 03:09:02;;;;;;;7.93;2.28;;;26.70;99.90;;;;;;5124259;27;20198;-83
2024/01/31 03:11:33;;;;;;;7.05;2.25;;;26.70;99.90;;;;;;5134332;27;20227;-83
2024/01/31 03:14:03;;;;;;;7.53;2.13;;;26.70;99.90;;;;;;5135299;27;20696;-83
2024/01/31 03:16:39;;;;;;;12.98;2.33;;;26.80;99.90;;;;;;5124099;27;20195;-84
2024/01/31 03:19:13;;;;;;;9.93;2.10;;;26.80;99.90;;;;;;5113761;28;20190;-85
2024/01/31 03:21:44;;;;;;;10.05;2.20;;;26.80;99.90;;;;;;5113981;28;20215;-85
2024/01/31 03:24:16;;;;;;;7.07;2.00;;;26.90;99.90;;;;;;5114554;28;20278;-85
2024/01/31 03:26:47;;;;;;;7.93;2.15;;;26.80;99.90;;;;;;5130088;27;20217;-84
2024/01/31 03:29:19;;;;;;;9.13;2.05;;;27.00;99.90;;;;;;5134388;27;20190;-85
2024/01/31 03:31:49;;;;;;;11.02;1.95;;;27.10;99.90;;;;;;5135272;27;20186;-84
2024/01/31 03:34:20;;;;;;;7.80;2.22;;;27.10;99.90;;;;;;5122183;27;20278;-83
2024/01/31 03:36:51;;;;;;;8.57;2.25;;;27.10;99.90;;;;;;5118787;27;20419;-84
2024/01/31 03:39:24;;;;;;;6.47;2.05;;;27.20;99.90;;;;;;5113240;28;20190;-81
2024/01/31 03:41:54;;;;;;;9.93;2.42;;;27.20;99.90;;;;;;5118070;27;20226;-81
2024/01/31 03:44:25;;;;;;;7.15;2.00;;;27.30;99.90;;;;;;5132984;27;20194;-81
2024/01/31 03:46:56;;;;;;;9.15;2.10;;;27.30;99.90;;;;;;5143704;27;20193;-82
2024/01/31 03:49:27;;;;;;;12.35;2.47;;;27.30;99.90;;;;;;5114681;27;20673;-82
2024/01/31 03:51:59;;;;;;;8.63;2.15;;;27.30;99.90;;;;;;5100888;27;20227;-81
2024/01/31 03:54:32;;;;;;;9.07;2.10;;;27.30;99.90;;;;;;5093037;28;20230;-80
2024/01/31 03:57:03;;;;;;;9.40;2.20;;;27.20;99.90;;;;;;5041106;28;20197;-81
2024/01/31 03:59:33;;;;;;;10.05;2.33;;;27.20;99.90;;;;;;5053111;28;20289;-82
2024/01/31 04:02:04;;;;;;;7.47;1.90;;;27.20;99.90;;;;;;5030843;28;20225;-81
2024/01/31 04:04:36;;;;;;;7.47;2.00;;;27.30;99.90;;;;;;5068801;28;20186;-80
2024/01/31 04:07:07;;;;;;;7.28;1.80;;;27.30;99.90;;;;;;5092999;28;20215;-81
2024/01/31 04:09:39;;;;;;;10.85;2.05;;;27.40;99.90;;;;;;5092562;28;20199;-80
2024/01/31 04:12:10;;;;;;;5.85;1.55;;;27.40;99.90;;;;;;5091947;28;20195;-80
2024/01/31 04:14:41;;;;;;;10.07;2.10;;;27.50;99.90;;;;;;5092163;28;20571;-82
2024/01/31 04:17:12;;;;;;;9.88;2.00;;;27.60;99.90;;;;;;5093210;28;20203;-81
2024/01/31 04:19:48;;;;;;;9.63;1.60;;;27.70;99.90;;;;;;5092520;28;20202;-82
2024/01/31 04:22:19;;;;;;;7.35;1.67;;;27.70;99.90;;;;;;5106036;27;20213;-81
2024/01/31 04:24:52;;;;;;;9.15;1.75;;;27.60;99.90;;;;;;5132387;27;20194;-80
2024/01/31 04:27:22;;;;;;;12.57;1.83;;;27.60;99.90;;;;;;5046442;28;20198;-81
2024/01/31 04:29:53;;;;;;;8.25;1.75;;;27.50;99.90;;;;;;5084600;28;20652;-81
2024/01/31 04:32:25;;;;;;;9.23;2.08;;;27.50;99.90;;;;;;5052784;28;20219;-81
2024/01/31 04:34:56;;;;;;;7.97;1.80;;;27.50;99.90;;;;;;5100945;28;20654;-81
2024/01/31 04:37:27;;;;;;;12.93;2.13;;;27.60;99.90;;;;;;5029330;28;20209;-80
2024/01/31 04:40:00;;;;;;;8.18;2.10;;;27.70;99.90;;;;;;5037144;28;20198;-81
2024/01/31 04:42:31;;;;;;;9.70;2.20;;;27.70;99.90;;;;;;5033774;28;20227;-80
2024/01/31 04:45:02;;;;;;;9.80;2.15;;;27.80;99.90;;;;;;5048103;28;20199;-80
2024/01/31 04:47:33;;;;;;;11.23;2.42;;;27.80;99.90;;;;;;5083248;28;20194;-80
2024/01/31 04:50:04;;;;;;;9.43;1.90;;;27.80;99.90;;;;;;5099289;28;20209;-80
2024/01/31 04:52:34;;;;;;;9.30;2.15;;;27.80;99.90;;;;;;5104942;28;20309;-81
2024/01/31 04:55:07;;;;;;;8.27;1.90;;;27.90;99.90;;;;;;5091741;28;20598;-80
2024/01/31 04:57:38;;;;;;;6.78;1.58;;;27.90;99.90;;;;;;5090997;28;20575;-81
2024/01/31 05:00:15;;;;;;;9.32;2.25;;;28.00;99.90;;;;;;5094467;28;20211;-82
2024/01/31 05:02:46;;;;;;;6.57;2.20;;;27.90;99.90;;;;;;5111850;28;20313;-81
2024/01/31 05:05:16;;;;;;;7.03;1.77;;;27.80;99.90;;;;;;5120250;27;20251;-81
2024/01/31 05:07:51;;;;;;;8.23;1.63;;;27.60;99.90;;;;;;5102840;28;20740;-81
2024/01/31 05:10:25;;;;;;;9.32;2.08;;;27.50;99.90;;;;;;5093328;28;20206;-81
2024/01/31 05:12:55;;;;;;;9.32;1.70;;;27.40;99.90;;;;;;5102982;28;20197;-78
2024/01/31 05:15:26;;;;;;;6.88;1.92;;;27.30;99.90;;;;;;5093282;28;20195;-79
2024/01/31 05:17:57;;;;;;;9.88;1.98;;;27.30;99.90;;;;;;5102343;28;20206;-78
2024/01/31 05:20:29;;;;;;;9.10;1.95;;;27.50;99.90;;;;;;5106455;28;20203;-79
2024/01/31 05:23:00;;;;;;;8.40;2.05;;;27.50;99.90;;;;;;5100886;28;20340;-78
2024/01/31 05:25:33;;;;;;;9.13;1.75;;;27.60;99.90;;;;;;5092240;28;20196;-78
2024/01/31 05:28:04;;;;;;;8.18;1.85;;;27.60;99.90;;;;;;5091346;28;20196;-78
2024/01/31 05:30:35;;;;;;;9.88;1.90;;;27.80;99.90;;;;;;5103682;28;20202;-78
2024/01/31 05:33:06;;;;;;;8.82;2.05;;;27.90;99.90;;;;;;5090460;28;20199;-78
2024/01/31 05:35:36;;;;;;;10.88;2.17;;;28.00;99.90;;;;;;5096650;28;20281;-79
2024/01/31 05:38:07;;;;;;;7.80;1.55;;;28.00;99.90;;;;;;5072962;28;20203;-79
2024/01/31 05:40:42;;;;;;;6.63;1.92;;;27.90;99.90;;;;;;5028172;28;20204;-79
2024/01/31 05:43:13;;;;;;;8.38;1.85;;;27.90;99.90;;;;;;5047219;28;20227;-77
2024/01/31 05:45:44;;;;;;;7.68;2.10;;;27.80;99.90;;;;;;5066676;28;20665;-77
2024/01/31 05:48:16;;;;;;;9.77;2.05;;;27.70;99.90;;;;;;5090444;28;20210;-77
2024/01/31 05:50:47;;;;;;;10.07;2.20;;;27.70;99.90;;;;;;5098675;28;20201;-79
2024/01/31 05:53:18;;;;;;;7.25;1.90;;;27.70;99.90;;;;;;5075336;28;20209;-80
2024/01/31 05:55:51;;;;;;;7.32;1.70;;;27.80;99.90;;;;;;5058742;28;20194;-78
2024/01/31 05:58:23;;;;;;;11.48;2.20;;;27.90;99.90;;;;;;5102942;28;20201;-80
2024/01/31 06:00:54;;;;;;;8.10;2.17;;;28.00;99.90;;;;;;5103438;28;20285;-80
2024/01/31 06:03:27;;;;;;;6.97;2.00;;;28.00;99.90;;;;;;5072179;28;20314;-79
2024/01/31 06:05:58;;;;;;;8.50;1.90;;;27.90;99.90;;;;;;5060495;28;20219;-80
2024/01/31 06:08:29;;;;;;;9.77;2.17;;;28.20;99.90;;;;;;5027735;28;20244;-81
2024/01/31 06:11:03;;;;;;;9.27;2.15;;;28.20;99.90;;;;;;5028576;28;20202;-79
2024/01/31 06:13:34;;;;;;;10.88;2.40;;;28.00;99.90;;;;;;5028117;28;20328;-79
2024/01/31 06:16:05;;;;;;;8.45;2.13;;;27.90;99.90;;;;;;5080281;28;20194;-80
2024/01/31 06:18:37;;;;;;;10.13;2.20;;;27.80;99.90;;;;;;5110375;28;20191;-80
2024/01/31 06:21:08;;;;;;;11.02;2.50;;;27.60;99.90;;;;;;5105547;28;20676;-80
2024/01/31 06:23:39;;;;;;;9.02;2.20;;;27.40;99.90;;;;;;5033354;28;20233;-79
2024/01/31 06:26:12;;;;;;;6.65;1.85;;;27.30;99.90;;;;;;5032204;28;20233;-81
2024/01/31 06:28:43;;;;;;;8.70;2.15;;;27.10;99.90;;;;;;5033440;28;20198;-81
2024/01/31 06:31:24;;;;;;;10.50;2.20;;;27.00;99.90;;;;;;5036037;28;20202;-80
2024/01/31 06:33:54;;;;;;;11.95;1.95;;;26.90;99.90;;;;;;5089791;28;21039;-81
2024/01/31 06:36:25;;;;;;;7.65;1.80;;;26.80;99.90;;;;;;5094969;28;20199;-80
2024/01/31 06:38:58;;;;;;;5.22;1.77;;;26.70;99.90;;;;;;5102117;28;20191;-81
2024/01/31 06:41:32;;;;;;;11.65;2.20;;;26.70;99.90;;;;;;5069240;28;20257;-79
2024/01/31 06:44:02;;;;;;;9.48;1.98;;;26.70;99.90;;;;;;5034027;27;20288;-79
2024/01/31 06:46:33;;;;;;;8.40;2.10;;;26.70;99.90;;;;;;5103112;28;20197;-81
2024/01/31 06:49:04;;;;;;;9.18;2.03;;;26.60;99.90;;;;;;5111969;28;20207;-80
2024/01/31 06:51:35;;;;;;;6.50;1.95;;;26.50;99.90;;;;;;5109755;28;20582;-80
2024/01/31 06:54:06;;;;;;;7.53;2.10;;;26.40;99.90;;;;;;5114580;28;20201;-80
2024/01/31 06:56:39;;;;;;;7.70;1.75;;;26.30;99.90;;;;;;5112288;27;20286;-80
2024/01/31 06:59:10;;;;;;;6.95;1.77;;;26.30;99.90;;;;;;5113579;28;20573;-81
2024/01/31 07:01:41;;;;;;;8.25;1.83;;;26.20;99.90;;;;;;5121922;27;20205;-79
2024/01/31 07:04:12;;;;;;;11.50;2.15;;;26.20;99.90;;;;;;5134050;27;20649;-79
2024/01/31 07:06:43;;;;;;;7.05;2.28;;;26.10;99.90;;;;;;5112718;28;20275;-79
2024/01/31 07:09:13;;;;;;;8.80;2.00;;;26.10;99.90;;;;;;5119264;27;20277;-79
2024/01/31 07:11:46;;;;;;;11.07;2.40;;;26.10;99.90;;;;;;5119096;27;20666;-76
2024/01/31 07:14:17;;;;;;;7.90;2.28;;;26.00;99.90;;;;;;5126502;27;20190;-79
2024/01/31 07:16:48;;;;;;;5.55;1.92;;;26.00;99.90;;;;;;5134358;27;20768;-81
2024/01/31 07:19:19;;;;;;;11.82;1.88;;;26.10;99.90;;;;;;5119929;27;20197;-80
2024/01/31 07:21:50;;;;;;;7.60;1.77;;;26.10;99.90;;;;;;5131062;27;20289;-79
2024/01/31 07:24:21;;;;;;;8.65;2.22;;;26.00;99.90;;;;;;5119697;27;20202;-78
2024/01/31 07:26:53;;;;;;;9.45;2.30;;;26.00;99.90;;;;;;5126464;27;20201;-79
2024/01/31 07:29:24;;;;;;;7.60;2.00;;;26.00;99.90;;;;;;5112861;27;20194;-80
2024/01/31 07:31:55;;;;;;;10.18;2.30;;;26.00;99.90;;;;;;5113441;28;20205;-78
2024/01/31 07:34:26;;;;;;;11.85;2.30;;;25.90;99.90;;;;;;5112234;27;20198;-79
2024/01/31 07:36:57;;;;;;;8.95;2.45;;;25.80;99.90;;;;;;5133074;27;20607;-79
2024/01/31 07:39:28;;;;;;;8.63;2.20;;;25.80;99.90;;;;;;5113253;27;20771;-79
2024/01/31 07:42:01;;;;;;;8.90;2.80;;;25.70;99.90;;;;;;5113184;27;20681;-79
2024/01/31 07:44:32;;;;;;;9.40;3.13;;;25.60;99.90;;;;;;5116988;27;20273;-78
2024/01/31 07:47:03;;;;;;;13.50;3.00;;;25.50;99.90;;;;;;5123861;27;20198;-79
2024/01/31 07:49:34;;;;;;;11.57;2.80;;;25.50;99.90;;;;;;5113284;28;20206;-79
2024/01/31 07:52:05;;;;;;;10.25;2.47;;;25.60;99.90;;;;;;5112974;27;20222;-78
2024/01/31 07:54:36;;;;;;;9.60;2.40;;;25.50;99.90;;;;;;5115233;28;20202;-77
2024/01/31 07:57:08;;;;;;;14.38;2.80;;;25.50;99.90;;;;;;5113857;27;20194;-76
2024/01/31 07:59:40;;;;;;;10.13;2.35;;;25.50;99.90;;;;;;5113242;27;20559;-78
2024/01/31 08:02:10;;;;;;;11.40;2.45;;;25.40;99.90;;;;;;5120479;27;20194;-77
2024/01/31 08:04:41;;;;;;;14.75;3.03;;;25.30;99.90;;;;;;5117580;27;20197;-77
2024/01/31 08:07:14;;;;;;;7.97;2.35;;;25.20;99.90;;;;;;5119383;27;20696;-77
2024/01/31 08:09:45;;;;;;;11.55;2.10;;;25.20;99.90;;;;;;5131186;27;20684;-77
2024/01/31 08:12:17;;;;;;;12.30;2.33;;;25.20;99.90;;;;;;5112801;28;20601;-77
2024/01/31 08:14:48;;;;;;;10.25;2.25;;;25.20;99.90;;;;;;5111736;27;20195;-78
2024/01/31 08:17:19;;;;;;;11.23;2.60;;;25.10;99.90;;;;;;5124269;27;20198;-78
2024/01/31 08:19:50;;;;;;;11.50;2.50;;;25.10;99.90;;;;;;5122573;27;20191;-78
2024/01/31 08:22:21;;;;;;;8.57;2.08;;;25.00;99.90;;;;;;5120602;27;20215;-78
2024/01/31 08:24:52;;;;;;;10.60;2.40;;;25.00;99.90;;;;;;5114435;27;20190;-78
2024/01/31 08:27:24;;;;;;;11.75;2.50;;;25.00;99.90;;;;;;5112373;28;20565;-78
2024/01/31 08:29:55;;;;;;;10.05;2.50;;;24.90;99.90;;;;;;5127729;27;20686;-78
2024/01/31 08:32:26;;;;;;;12.77;2.95;;;25.00;99.90;;;;;;5132378;27;20208;-78
2024/01/31 08:34:57;;;;;;;10.25;3.40;;;24.90;99.90;;;;;;5132945;27;20295;-79
2024/01/31 08:37:27;;;;;;;9.57;2.58;;;24.80;99.90;;;;;;5127577;27;20228;-79
2024/01/31 08:39:58;;;;;;;9.50;2.42;;;24.80;99.90;;;;;;5128219;27;20677;-79
2024/01/31 08:42:31;;;;;;;10.98;2.50;;;24.80;99.90;;;;;;5111078;27;20285;-78
2024/01/31 08:45:02;;;;;;;9.68;2.50;;;24.80;99.90;;;;;;5111455;28;20619;-79
2024/01/31 08:47:32;;;;;;;11.13;2.53;;;24.70;99.90;;;;;;5112299;28;20281;-79
2024/01/31 08:50:03;;;;;;;9.18;2.60;;;24.70;99.90;;;;;;5116940;27;20195;-79
2024/01/31 08:52:34;;;;;;;9.23;2.42;;;24.70;99.90;;;;;;5120286;27;20232;-79
2024/01/31 08:55:05;;;;;;;6.15;2.05;;;24.70;99.90;;;;;;5117911;27;20193;-79
2024/01/31 08:57:38;;;;;;;10.00;2.40;;;24.60;99.90;;;;;;5114398;27;20198;-79
2024/01/31 09:00:11;;;;;;;7.60;1.83;;;24.60;99.90;;;;;;5120583;27;20195;-80
2024/01/31 09:02:44;;;;;;;10.00;2.40;;;24.60;99.90;;;;;;5115154;27;20212;-80
2024/01/31 09:05:18;;;;;;;11.63;2.28;;;24.50;99.90;;;;;;5125394;27;20281;-80
2024/01/31 09:07:53;;;;;;;6.35;2.00;;;24.50;99.90;;;;;;5119368;27;20731;-80
2024/01/31 09:10:25;;;;;;;10.02;2.22;;;24.50;99.90;;;;;;5110101;28;20201;-78
2024/01/31 09:12:57;;;;;;;8.30;2.10;;;24.50;99.90;;;;;;5111951;27;20698;-80
2024/01/31 09:15:28;;;;;;;10.80;3.25;;;24.50;99.90;;;;;;5123432;27;20194;-78
2024/01/31 09:17:59;;;;;;;8.93;2.70;;;24.50;99.90;;;;;;5116402;27;20191;-81
2024/01/31 09:20:30;;;;;;;10.90;3.00;;;24.50;99.90;;;;;;5124885;27;20202;-79
2024/01/31 09:23:01;;;;;;;8.88;3.10;;;24.50;99.90;;;;;;5125585;27;20213;-80
2024/01/31 09:25:31;;;;;;;12.00;2.97;;;24.50;99.90;;;;;;5130519;27;20236;-80
2024/01/31 09:28:04;;;;;;;7.78;2.47;;;24.50;99.90;;;;;;5120231;27;20603;-80
2024/01/31 09:30:35;;;;;;;8.50;2.88;;;24.50;99.90;;;;;;5117572;27;20194;-81
2024/01/31 09:33:06;;;;;;;11.93;2.60;;;24.50;99.90;;;;;;5120115;27;20199;-80
2024/01/31 09:35:36;;;;;;;6.47;2.15;;;24.50;99.90;;;;;;5115745;27;20243;-78
2024/01/31 09:38:07;;;;;;;10.82;2.72;;;24.40;99.90;;;;;;5111201;28;20194;-79
2024/01/31 09:40:38;;;;;;;12.25;2.72;;;24.40;99.90;;;;;;5111374;28;20206;-80
2024/01/31 09:43:11;;;;;;;8.95;2.50;;;24.40;99.90;;;;;;5114250;27;20212;-80
2024/01/31 09:45:43;;;;;;;7.53;2.08;;;24.40;99.90;;;;;;5124849;27;20205;-81
2024/01/31 09:48:16;;;;;;;8.57;2.15;;;24.40;99.90;;;;;;5111376;28;20205;-81
2024/01/31 09:50:47;;;;;;;9.77;2.25;;;24.50;99.90;;;;;;5119894;27;20197;-79
2024/01/31 09:53:21;;;;;;;7.22;2.45;;;24.40;99.90;;;;;;5129474;27;20203;-79
2024/01/31 09:55:56;;;;;;;9.30;3.03;;;24.40;99.90;;;;;;5110859;28;20243;-80
2024/01/31 09:58:29;;;;;;;6.97;2.15;;;24.50;99.90;;;;;;5114191;28;20197;-79
2024/01/31 10:01:01;;;;;;;9.13;2.30;;;24.50;99.90;;;;;;5133423;28;20654;-79
2024/01/31 10:03:32;;;;;;;7.30;2.17;;;24.50;99.90;;;;;;5126698;28;20218;-79
2024/01/31 10:06:05;;;;;;;7.72;2.60;;;24.50;99.90;;;;;;5117031;28;20716;-79
2024/01/31 10:08:35;;;;;;;8.98;2.70;;;24.50;99.90;;;;;;5112790;28;20192;-78
2024/01/31 10:11:06;;;;;;;9.30;2.38;;;24.50;99.90;;;;;;5122766;28;20197;-79
2024/01/31 10:13:39;;;;;;;10.98;2.33;;;24.60;99.90;;;;;;5124349;28;20293;-78
2024/01/31 10:16:10;;;;;;;10.05;2.47;;;24.50;99.90;;;;;;5128899;28;20190;-79
2024/01/31 10:18:41;;;;;;;10.48;2.80;;;24.50;99.90;;;;;;5129674;28;20208;-79
2024/01/31 10:21:13;;;;;;;10.25;2.22;;;24.50;99.90;;;;;;5125540;28;20562;-79
2024/01/31 10:23:44;;;;;;;10.65;2.35;;;24.50;99.90;;;;;;5124964;28;20313;-79
2024/01/31 10:26:16;;;;;;;8.20;2.00;;;24.40;99.90;;;;;;5129638;28;20193;-80
2024/01/31 10:28:49;;;;;;;7.25;1.80;;;24.40;99.90;;;;;;5118076;28;20320;-78
2024/01/31 10:31:21;;;;;;;8.98;2.20;;;24.40;99.90;;;;;;5110915;28;20187;-79
2024/01/31 10:33:53;;;;;;;9.18;2.00;;;24.50;99.90;;;;;;5110580;28;20191;-77
2024/01/31 10:36:26;;;;;;;9.43;1.95;;;24.50;99.90;;;;;;5110450;28;20220;-80
2024/01/31 10:38:57;;;;;;;11.70;2.30;;;24.50;99.90;;;;;;5109980;28;20237;-77
2024/01/31 10:41:29;;;;;;;9.20;2.20;;;24.50;99.90;;;;;;5110024;28;20677;-80
2024/01/31 10:44:08;;;;;;;11.18;2.45;;;24.50;99.90;;;;;;5125336;28;20217;-77
2024/01/31 10:46:39;;;;;;;7.00;1.85;;;24.60;99.90;;;;;;5129796;28;20198;-80
2024/01/31 10:49:11;;;;;;;10.38;2.25;;;24.60;99.90;;;;;;5115952;28;20283;-78
2024/01/31 10:51:44;;;;;;;6.55;1.85;;;24.60;99.90;;;;;;5129409;28;20778;-78
2024/01/31 10:54:17;;;;;;;6.50;2.13;;;24.60;99.90;;;;;;5130424;28;20193;-80
2024/01/31 10:56:48;;;;;;;9.02;1.80;;;24.70;99.90;;;;;;5131119;28;20198;-79
2024/01/31 10:59:21;;;;;;;8.60;1.98;;;24.70;99.90;;;;;;5126798;28;20654;-79
2024/01/31 11:01:58;;;;;;;13.35;2.63;;;24.60;99.90;;;;;;5113679;28;20566;-79
2024/01/31 11:04:30;;;;;;;7.90;2.28;;;24.70;99.90;;;;;;5129726;28;20217;-79
2024/01/31 11:07:03;;;;;;;13.40;2.58;;;24.60;99.90;;;;;;5130629;28;20220;-77
2024/01/31 11:09:34;;;;;;;11.15;2.63;;;24.70;99.90;;;;;;5130963;27;20250;-78
2024/01/31 11:12:06;;;;;;;8.90;1.95;;;24.70;99.90;;;;;;5135067;27;20193;-78
2024/01/31 11:14:39;;;;;;;11.35;1.98;;;24.70;99.90;;;;;;5120568;27;20243;-79
2024/01/31 11:17:12;;;;;;;9.95;2.35;;;24.70;99.90;;;;;;5115002;27;20199;-78
2024/01/31 11:19:46;;;;;;;11.57;2.47;;;24.70;99.90;;;;;;5135142;27;20201;-79
2024/01/31 11:22:17;;;;;;;10.38;2.00;;;24.70;99.90;;;;;;5122598;27;20182;-79
2024/01/31 11:24:49;;;;;;;11.20;2.17;;;24.70;99.90;;;;;;5113700;27;20233;-78
2024/01/31 11:27:21;;;;;;;11.13;2.47;;;24.70;99.90;;;;;;5118064;27;20196;-79
2024/01/31 11:29:54;;;;;;;8.57;2.33;;;24.70;99.90;;;;;;5113056;28;20190;-78
2024/01/31 11:32:25;;;;;;;13.07;2.40;;;24.70;99.90;;;;;;5111862;28;20199;-80
2024/01/31 11:35:04;;;;;;;9.40;2.35;;;24.70;99.90;;;;;;5115514;27;20204;-77
2024/01/31 11:37:35;;;;;;;12.30;2.33;;;24.70;99.90;;;;;;5133483;27;20227;-78
2024/01/31 11:40:06;;;;;;;9.85;2.20;;;24.70;99.90;;;;;;5133477;27;20203;-78
2024/01/31 11:42:37;;;;;;;8.48;2.15;;;24.70;99.90;;;;;;5134132;27;20281;-79
2024/01/31 11:45:13;;;;;;;10.75;2.20;;;24.70;99.90;;;;;;5133242;27;20222;-79
2024/01/31 11:47:45;;;;;;;7.50;1.85;;;24.70;99.90;;;;;;5126338;27;20576;-79
2024/01/31 11:50:16;;;;;;;10.63;2.10;;;24.70;99.90;;;;;;5112538;28;20202;-79
2024/01/31 11:52:48;;;;;;;7.15;1.83;;;24.70;99.90;;;;;;5113031;27;20226;-78
2024/01/31 11:55:24;;;;;;;8.90;2.08;;;24.70;99.90;;;;;;5114058;27;20673;-78
2024/01/31 11:57:55;;;;;;;13.85;2.00;;;24.80;99.90;;;;;;5133243;27;20200;-79
2024/01/31 12:00:28;;;;;;;7.82;2.38;;;24.80;99.90;;;;;;5133001;27;20657;-78
2024/01/31 12:02:58;;;;;;;9.13;2.10;;;24.90;99.90;;;;;;5124877;27;20209;-79
2024/01/31 12:05:29;;;;;;;11.77;2.40;;;24.90;99.90;;;;;;5124582;27;20218;-80
2024/01/31 12:08:00;;;;;;;9.25;2.60;;;24.90;99.90;;;;;;5112839;27;20219;-78
2024/01/31 12:10:31;;;;;;;7.35;2.00;;;24.90;99.90;;;;;;5134916;27;20193;-79
2024/01/31 12:13:04;;;;;;;10.77;2.30;;;24.90;99.90;;;;;;5131865;27;20704;-79
2024/01/31 12:15:36;;;;;;;9.88;2.22;;;24.90;99.90;;;;;;5133328;27;20241;-78
2024/01/31 12:18:08;;;;;;;9.70;2.20;;;24.90;99.90;;;;;;5130271;27;20197;-79
2024/01/31 12:20:39;;;;;;;8.82;2.10;;;24.90;99.90;;;;;;5132719;27;20285;-79
2024/01/31 12:23:09;;;;;;;9.40;2.40;;;24.90;99.90;;;;;;5132091;27;20201;-79
2024/01/31 12:25:40;;;;;;;8.43;2.10;;;24.90;99.90;;;;;;5123704;27;20329;-79
2024/01/31 12:28:12;;;;;;;7.32;2.20;;;24.90;99.90;;;;;;5111753;27;20198;-79
2024/01/31 12:30:45;;;;;;;7.03;2.00;;;24.80;99.90;;;;;;5112737;27;20206;-79
2024/01/31 12:33:15;;;;;;;8.35;2.15;;;24.80;99.90;;;;;;5121069;27;20182;-79
2024/01/31 12:35:46;;;;;;;10.30;2.40;;;24.80;99.90;;;;;;5126274;27;20205;-78
2024/01/31 12:38:17;;;;;;;8.35;2.25;;;24.80;99.90;;;;;;5132880;27;20194;-78
2024/01/31 12:40:48;;;;;;;9.10;3.15;;;24.80;99.90;;;;;;5121563;27;20202;-78
2024/01/31 12:43:20;;;;;;;9.70;3.20;;;24.80;99.90;;;;;;5113342;27;20210;-77
2024/01/31 12:45:53;;;;;;;15.80;3.92;;;24.80;99.90;;;;;;5126294;27;20225;-78
2024/01/31 12:48:24;;;;;;;11.35;3.67;;;24.80;99.90;;;;;;5113281;27;20280;-78
2024/01/31 12:50:55;;;;;;;12.30;3.65;;;24.70;99.90;;;;;;5111662;28;20249;-78
2024/01/31 12:53:27;;;;;;;10.48;3.38;;;24.70;99.90;;;;;;5128419;27;20194;-78
2024/01/31 12:55:58;;;;;;;14.38;3.70;;;24.80;99.90;;;;;;5131377;27;20220;-79
2024/01/31 12:58:28;;;;;;;10.55;3.75;;;24.80;99.90;;;;;;5132558;27;20197;-79
2024/01/31 13:01:01;;;;;;;17.95;3.85;;;24.70;99.90;;;;;;5131431;27;20194;-79
2024/01/31 13:03:32;;;;;;;15.57;4.47;;;24.70;99.90;;;;;;5122152;27;20281;-78
2024/01/31 13:06:03;;;;;;;11.20;3.47;;;24.60;99.90;;;;;;5123003;27;20289;-77